createdAt,value
2018-07-13T00:01:08.323Z,10.70
2018-07-13T00:03:38.223Z,9.10
2018-07-13T00:06:08.157Z,8.87
2018-07-13T00:08:37.995Z,9.13
2018-07-13T00:11:07.825Z,9.33
2018-07-13T00:14:19.372Z,9.27
2018-07-13T00:16:50.211Z,10.60
2018-07-13T00:19:20.899Z,11.33
2018-07-13T00:21:50.899Z,12.90
2018-07-13T00:24:20.767Z,12.50
2018-07-13T00:26:50.668Z,13.07
2018-07-13T00:29:20.623Z,11.93
2018-07-13T00:31:50.707Z,12.27
2018-07-13T00:34:20.709Z,12.20
2018-07-13T00:36:50.647Z,12.27
2018-07-13T00:39:20.808Z,12.13
2018-07-13T00:41:50.745Z,12.10
2018-07-13T00:44:20.899Z,12.67
2018-07-13T00:46:50.877Z,12.77
2018-07-13T00:49:21.122Z,12.43
2018-07-13T00:51:50.869Z,11.70
2018-07-13T00:54:20.844Z,12.00
2018-07-13T00:56:50.864Z,10.10
2018-07-13T00:59:20.785Z,10.80
2018-07-13T01:01:50.725Z,10.80
2018-07-13T01:04:20.861Z,11.07
2018-07-13T01:06:50.917Z,10.83
2018-07-13T01:09:20.921Z,11.20
2018-07-13T01:11:50.876Z,10.43
2018-07-13T01:14:20.852Z,11.40
2018-07-13T01:16:50.808Z,10.87
2018-07-13T01:19:20.783Z,11.20
2018-07-13T01:21:50.880Z,10.87
2018-07-13T01:24:20.979Z,11.80
2018-07-13T01:26:50.874Z,11.17
2018-07-13T01:29:21.053Z,10.33
2018-07-13T01:31:51.032Z,11.60
2018-07-13T01:34:21.012Z,11.40
2018-07-13T01:36:51.016Z,13.00
2018-07-13T01:39:20.935Z,12.37
2018-07-13T01:41:50.925Z,12.77
2018-07-13T01:44:20.819Z,12.63
2018-07-13T01:46:50.725Z,12.13
2018-07-13T01:49:20.784Z,12.43
2018-07-13T01:51:50.518Z,11.07
2018-07-13T01:54:20.573Z,11.60
2018-07-13T01:56:50.568Z,11.27
2018-07-13T01:59:20.548Z,11.40
2018-07-13T02:01:50.713Z,10.93
2018-07-13T02:04:20.639Z,12.10
2018-07-13T02:06:50.591Z,11.83
2018-07-13T02:09:20.503Z,10.93
2018-07-13T02:11:50.530Z,11.70
2018-07-13T02:14:20.344Z,11.50
2018-07-13T02:16:50.388Z,12.97
2018-07-13T02:19:20.259Z,12.07
2018-07-13T02:21:50.253Z,12.63
2018-07-13T02:24:20.159Z,12.20
2018-07-13T02:26:50.129Z,12.80
2018-07-13T02:29:20.149Z,11.40
2018-07-13T02:31:50.088Z,11.27
2018-07-13T02:34:20.058Z,12.17
2018-07-13T02:36:49.991Z,12.80
2018-07-13T02:39:19.866Z,12.80
2018-07-13T02:41:49.781Z,12.33
2018-07-13T02:44:19.716Z,12.33
2018-07-13T02:46:49.855Z,12.27
2018-07-13T02:49:19.834Z,12.57
2018-07-13T02:51:49.695Z,13.13
2018-07-13T02:54:19.922Z,13.70
2018-07-13T02:56:50.266Z,12.90
2018-07-13T02:59:20.931Z,13.70
2018-07-13T03:01:51.173Z,13.20
2018-07-13T03:04:21.948Z,12.97
2018-07-13T03:06:52.376Z,12.63
2018-07-13T03:09:22.452Z,11.87
2018-07-13T03:11:52.384Z,12.47
2018-07-13T03:14:22.449Z,10.87
2018-07-13T03:16:52.823Z,11.80
2018-07-13T03:19:22.942Z,11.53
2018-07-13T03:21:53.181Z,11.00
2018-07-13T03:24:23.068Z,11.77
2018-07-13T03:26:53.073Z,10.87
2018-07-13T03:29:23.083Z,11.03
2018-07-13T03:31:53.052Z,10.40
2018-07-13T03:34:23.189Z,9.90
2018-07-13T03:36:53.255Z,10.33
2018-07-13T03:39:23.496Z,9.97
2018-07-13T03:41:53.335Z,9.70
2018-07-13T03:44:23.260Z,9.07
2018-07-13T03:46:53.101Z,8.80
2018-07-13T03:49:22.944Z,8.57
2018-07-13T03:51:52.781Z,9.03
2018-07-13T03:54:23.777Z,7.87
2018-07-13T03:56:53.680Z,7.23
2018-07-13T03:59:23.507Z,7.90
2018-07-13T04:01:53.948Z,8.33
2018-07-13T04:04:24.024Z,7.23
2018-07-13T04:06:54.071Z,7.23
2018-07-13T04:09:24.123Z,6.97
2018-07-13T04:11:54.241Z,7.13
2018-07-13T04:14:24.212Z,7.50
2018-07-13T04:16:54.068Z,8.23
2018-07-13T04:19:25.199Z,8.00
2018-07-13T04:21:55.117Z,8.10
2018-07-13T04:24:25.001Z,8.37
2018-07-13T04:26:55.060Z,8.77
2018-07-13T04:29:25.856Z,8.20
2018-07-13T04:31:56.306Z,8.43
2018-07-13T04:34:26.455Z,8.63
2018-07-13T04:36:56.540Z,8.90
2018-07-13T04:39:26.400Z,8.77
2018-07-13T04:41:56.565Z,9.23
2018-07-13T04:44:26.367Z,8.60
2018-07-13T04:46:56.392Z,8.93
2018-07-13T04:49:26.349Z,9.50
2018-07-13T04:51:56.162Z,9.97
2018-07-13T04:54:25.977Z,9.83
2018-07-13T04:56:56.268Z,9.30
2018-07-13T04:59:26.363Z,9.77
2018-07-13T05:01:56.387Z,10.40
2018-07-13T05:04:26.331Z,10.10
2018-07-13T05:06:56.273Z,10.77
2018-07-13T05:09:26.215Z,9.57
2018-07-13T05:11:57.266Z,9.40
2018-07-13T05:14:27.245Z,9.73
2018-07-13T05:16:57.317Z,9.60
2018-07-13T05:19:27.606Z,10.30
2018-07-13T05:21:57.511Z,10.53
2018-07-13T05:24:27.582Z,11.03
2018-07-13T05:26:57.713Z,13.80
2018-07-13T05:29:27.725Z,14.20
2018-07-13T05:31:58.291Z,11.67
2018-07-13T05:34:28.479Z,11.23
2018-07-13T05:36:58.735Z,10.33
2018-07-13T05:39:28.652Z,9.70
2018-07-13T05:41:58.710Z,9.63
2018-07-13T05:44:28.714Z,10.37
2018-07-13T05:46:58.905Z,9.57
2018-07-13T05:49:28.839Z,9.60
2018-07-13T05:51:58.870Z,9.70
2018-07-13T05:54:29.004Z,10.13
2018-07-13T05:56:59.048Z,10.03
2018-07-13T05:59:29.206Z,9.00
2018-07-13T06:01:59.141Z,9.63
2018-07-13T06:04:29.449Z,9.43
2018-07-13T06:06:59.585Z,9.23
2018-07-13T06:09:29.848Z,10.17
2018-07-13T06:12:00.588Z,9.40
2018-07-13T06:14:30.751Z,9.83
2018-07-13T06:17:00.996Z,9.60
2018-07-13T06:19:31.096Z,9.33
2018-07-13T06:22:01.053Z,9.93
2018-07-13T06:24:31.093Z,9.97
2018-07-13T06:27:01.072Z,10.63
2018-07-13T06:29:31.516Z,10.43
2018-07-13T06:32:01.426Z,10.63
2018-07-13T06:34:31.555Z,9.40
2018-07-13T06:37:01.457Z,10.10
2018-07-13T06:39:31.628Z,9.87
2018-07-13T06:42:01.941Z,9.70
2018-07-13T06:44:31.944Z,10.23
2018-07-13T06:47:02.030Z,10.20
2018-07-13T06:49:32.086Z,8.93
2018-07-13T06:52:01.887Z,9.07
2018-07-13T06:54:32.352Z,9.13
2018-07-13T06:57:08.952Z,10.17
2018-07-13T06:59:38.973Z,9.07
2018-07-13T07:02:13.731Z,9.80
2018-07-13T07:04:43.866Z,9.13
2018-07-13T07:07:20.977Z,8.97
2018-07-13T07:09:54.149Z,8.83
2018-07-13T07:13:00.435Z,9.57
2018-07-13T07:15:29.938Z,9.43
2018-07-13T07:17:59.764Z,8.73
2018-07-13T07:20:29.972Z,9.47
2018-07-13T07:22:59.932Z,9.30
2018-07-13T07:25:29.799Z,9.10
2018-07-13T07:27:59.696Z,8.97
2018-07-13T07:30:29.673Z,8.53
2018-07-13T07:32:59.643Z,8.20
2018-07-13T07:35:29.721Z,10.10
2018-07-13T07:37:59.904Z,8.67
2018-07-13T07:40:29.977Z,8.40
2018-07-13T07:42:59.857Z,8.27
2018-07-13T07:45:29.956Z,8.43
2018-07-13T07:47:59.845Z,8.37
2018-07-13T07:50:29.630Z,8.30
2018-07-13T07:52:59.484Z,7.80
2018-07-13T07:55:29.406Z,9.10
2018-07-13T07:57:59.720Z,8.37
2018-07-13T08:00:29.888Z,8.10
2018-07-13T08:02:59.878Z,7.97
2018-07-13T08:05:29.949Z,7.60
2018-07-13T08:07:59.907Z,7.63
2018-07-13T08:10:29.848Z,8.00
2018-07-13T08:12:59.765Z,7.37
2018-07-13T08:15:30.196Z,8.23
2018-07-13T08:18:00.099Z,8.23
2018-07-13T08:20:31.508Z,8.97
2018-07-13T08:23:06.914Z,9.67
2018-07-13T08:25:37.728Z,8.47
2018-07-13T08:28:08.635Z,7.57
2018-07-13T08:30:46.645Z,8.17
2018-07-13T08:33:16.525Z,8.70
2018-07-13T08:35:46.534Z,8.93
2018-07-13T08:38:16.495Z,7.30
2018-07-13T08:40:46.429Z,7.90
2018-07-13T08:43:16.328Z,7.40
2018-07-13T08:46:02.499Z,7.20
2018-07-13T08:48:37.965Z,7.90
2018-07-13T08:51:07.975Z,7.30
2018-07-13T08:53:37.776Z,6.93
2018-07-13T08:56:08.060Z,7.90
2018-07-13T08:58:38.033Z,6.73
2018-07-13T09:01:08.141Z,6.77
2018-07-13T09:03:38.132Z,8.50
2018-07-13T09:06:08.083Z,8.53
2018-07-13T09:08:37.955Z,8.83
2018-07-13T09:11:08.491Z,8.03
2018-07-13T09:13:38.419Z,8.23
2018-07-13T09:16:08.391Z,8.13
2018-07-13T09:18:38.545Z,9.57
2018-07-13T09:21:08.496Z,8.17
2018-07-13T09:23:38.616Z,7.70
2018-07-13T09:26:08.660Z,8.47
2018-07-13T09:28:38.665Z,7.93
2018-07-13T09:31:08.670Z,8.50
2018-07-13T09:33:38.714Z,7.87
2018-07-13T09:36:08.801Z,8.13
2018-07-13T09:38:38.823Z,8.87
2018-07-13T09:41:08.854Z,7.83
2018-07-13T09:43:38.791Z,7.90
2018-07-13T09:46:08.768Z,7.67
2018-07-13T09:48:38.632Z,7.90
2018-07-13T09:51:08.480Z,9.10
2018-07-13T09:53:38.772Z,8.60
2018-07-13T09:56:08.785Z,8.70
2018-07-13T09:58:39.107Z,8.23
2018-07-13T10:01:14.041Z,8.13
2018-07-13T10:03:44.003Z,8.13
2018-07-13T10:06:14.137Z,7.60
2018-07-13T10:08:44.088Z,8.73
2018-07-13T10:11:14.156Z,8.70
2018-07-13T10:13:44.042Z,9.80
2018-07-13T10:16:13.929Z,9.63
2018-07-13T10:18:43.864Z,10.17
2018-07-13T10:21:13.841Z,10.13
2018-07-13T10:23:44.669Z,10.37
2018-07-13T10:26:26.248Z,9.70
2018-07-13T10:28:56.267Z,8.80
2018-07-13T10:31:26.213Z,9.60
2018-07-13T10:33:56.329Z,9.53
2018-07-13T10:36:26.271Z,8.53
2018-07-13T10:38:56.444Z,9.40
2018-07-13T10:41:26.400Z,9.03
2018-07-13T10:43:56.514Z,9.57
2018-07-13T10:46:26.372Z,9.83
2018-07-13T10:48:56.407Z,10.70
2018-07-13T10:51:26.225Z,10.63
2018-07-13T10:53:56.040Z,10.53
2018-07-13T10:56:26.741Z,11.17
2018-07-13T10:58:56.902Z,9.40
2018-07-13T11:01:26.755Z,8.50
2018-07-13T11:03:56.729Z,9.07
2018-07-13T11:06:26.708Z,9.33
2018-07-13T11:08:56.720Z,9.20
2018-07-13T11:11:26.913Z,8.37
2018-07-13T11:13:57.232Z,9.20
2018-07-13T11:16:27.179Z,8.53
2018-07-13T11:18:57.486Z,8.53
2018-07-13T11:21:27.776Z,8.97
2018-07-13T11:23:57.825Z,8.67
2018-07-13T11:26:27.936Z,8.70
2018-07-13T11:28:57.786Z,8.40
2018-07-13T11:31:27.676Z,8.47
2018-07-13T11:33:57.813Z,8.37
2018-07-13T11:36:27.843Z,8.60
2018-07-13T11:38:57.807Z,8.27
2018-07-13T11:41:28.386Z,8.03
2018-07-13T11:43:58.640Z,8.50
2018-07-13T11:46:28.592Z,8.93
2018-07-13T11:48:58.488Z,8.10
2018-07-13T11:51:28.287Z,8.10
2018-07-13T11:53:58.161Z,8.57
2018-07-13T11:56:28.122Z,8.07
2018-07-13T11:58:58.086Z,7.97
2018-07-13T12:01:28.144Z,8.47
2018-07-13T12:03:58.016Z,9.10
2018-07-13T12:06:27.933Z,12.70
2018-07-13T12:08:57.960Z,13.70
2018-07-13T12:11:27.905Z,13.50
2018-07-13T12:13:58.000Z,13.10
2018-07-13T12:16:28.064Z,14.90
2018-07-13T12:18:57.935Z,14.83
2018-07-13T12:21:28.038Z,16.53
2018-07-13T12:23:57.993Z,16.10
2018-07-13T12:26:28.040Z,16.83
2018-07-13T12:28:58.080Z,17.30
2018-07-13T12:31:28.202Z,15.40
2018-07-13T12:33:58.189Z,14.17
2018-07-13T12:36:28.412Z,13.97
2018-07-13T12:38:58.412Z,20.70
2018-07-13T12:41:28.924Z,15.03
2018-07-13T12:43:59.083Z,19.83
2018-07-13T12:46:29.295Z,25.67
2018-07-13T12:48:59.420Z,28.27
2018-07-13T12:51:29.282Z,32.07
2018-07-13T12:53:59.420Z,34.50
2018-07-13T12:56:29.357Z,33.07
2018-07-13T12:58:59.463Z,37.13
2018-07-13T13:01:29.353Z,33.97
2018-07-13T13:03:59.511Z,35.57
2018-07-13T13:06:29.463Z,29.47
2018-07-13T13:08:59.870Z,34.03
2018-07-13T13:11:29.793Z,29.77
2018-07-13T13:13:59.840Z,33.17
2018-07-13T13:16:30.016Z,31.03
2018-07-13T13:19:00.457Z,26.33
2018-07-13T13:21:30.515Z,23.87
2018-07-13T13:24:00.388Z,20.33
2018-07-13T13:26:30.433Z,20.10
2018-07-13T13:29:00.509Z,20.67
2018-07-13T13:31:30.590Z,16.63
2018-07-13T13:34:00.621Z,12.07
2018-07-13T13:36:30.601Z,11.87
2018-07-13T13:39:00.640Z,10.97
2018-07-13T13:41:30.669Z,11.93
2018-07-13T13:44:00.782Z,10.43
2018-07-13T13:46:30.874Z,11.25
2018-07-13T13:49:00.837Z,10.57
2018-07-13T13:51:30.556Z,12.47
2018-07-13T13:54:00.465Z,11.60
2018-07-13T13:56:30.510Z,10.80
2018-07-13T13:59:00.502Z,10.53
2018-07-13T14:01:30.466Z,10.43
2018-07-13T14:04:00.480Z,12.53
2018-07-13T14:06:30.484Z,8.53
2018-07-13T14:09:01.827Z,9.37
2018-07-13T14:11:31.726Z,8.97
2018-07-13T14:14:01.700Z,9.27
2018-07-13T14:16:31.852Z,10.07
2018-07-13T14:19:01.937Z,9.60
2018-07-13T14:21:31.891Z,9.37
2018-07-13T14:24:01.889Z,9.07
2018-07-13T14:26:32.048Z,10.03
2018-07-13T14:29:02.098Z,10.13
2018-07-13T14:31:31.953Z,9.70
2018-07-13T14:34:25.483Z,9.23
2018-07-13T14:38:43.429Z,9.67
2018-07-13T14:41:13.352Z,10.03
2018-07-13T14:43:43.579Z,10.03
2018-07-13T14:46:13.995Z,10.90
2018-07-13T14:48:44.183Z,9.13
2018-07-13T14:51:13.924Z,9.60
2018-07-13T14:53:43.662Z,10.03
2018-07-13T14:56:13.573Z,8.33
2018-07-13T14:58:43.415Z,7.50
2018-07-13T15:01:13.448Z,8.50
2018-07-13T15:03:43.465Z,10.00
2018-07-13T15:06:13.687Z,9.47
2018-07-13T15:08:43.473Z,7.97
2018-07-13T15:11:13.397Z,8.07
2018-07-13T15:13:43.248Z,8.47
2018-07-13T15:16:13.347Z,7.27
2018-07-13T15:18:43.237Z,7.10
2018-07-13T15:21:13.234Z,7.17
2018-07-13T15:23:43.306Z,7.17
2018-07-13T15:26:13.253Z,8.00
2018-07-13T15:28:43.539Z,7.50
2018-07-13T15:31:13.622Z,8.13
2018-07-13T15:33:43.660Z,7.87
2018-07-13T15:36:13.639Z,7.57
2018-07-13T15:38:43.587Z,7.23
2018-07-13T15:41:13.573Z,6.63
2018-07-13T15:43:43.632Z,5.10
2018-07-13T15:46:13.572Z,5.73
2018-07-13T15:48:43.556Z,5.47
2018-07-13T15:51:13.363Z,5.53
2018-07-13T15:53:43.177Z,6.17
2018-07-13T15:56:13.141Z,6.23
2018-07-13T15:58:43.192Z,6.53
2018-07-13T16:01:13.353Z,6.37
2018-07-13T16:03:43.267Z,6.27
2018-07-13T16:06:13.501Z,5.83
2018-07-13T16:08:43.523Z,5.57
2018-07-13T16:11:13.654Z,5.40
2018-07-13T16:13:43.654Z,5.33
2018-07-13T16:16:13.671Z,7.40
2018-07-13T16:18:49.628Z,6.13
2018-07-13T16:21:19.643Z,5.80
2018-07-13T16:23:49.493Z,6.73
2018-07-13T16:26:19.673Z,6.20
2018-07-13T16:28:49.882Z,7.63
2018-07-13T16:31:20.005Z,9.23
2018-07-13T16:33:50.898Z,6.70
2018-07-13T16:36:20.867Z,5.67
2018-07-13T16:38:50.950Z,14.47
2018-07-13T16:41:21.140Z,7.90
2018-07-13T16:43:51.519Z,6.43
2018-07-13T16:46:21.607Z,7.43
2018-07-13T16:48:51.715Z,6.83
2018-07-13T16:51:21.434Z,9.37
2018-07-13T16:53:51.519Z,10.23
2018-07-13T16:56:21.594Z,7.57
2018-07-13T16:58:51.608Z,7.07
2018-07-13T17:01:21.614Z,8.13
2018-07-13T17:03:51.976Z,8.23
2018-07-13T17:06:21.946Z,7.23
2018-07-13T17:08:52.116Z,7.40
2018-07-13T17:11:21.948Z,8.43
2018-07-13T17:13:52.992Z,9.10
2018-07-13T17:16:22.897Z,8.47
2018-07-13T17:18:52.961Z,9.30
2018-07-13T17:21:23.024Z,11.10
2018-07-13T17:23:53.178Z,11.67
2018-07-13T17:26:23.237Z,10.37
2018-07-13T17:28:53.438Z,10.63
2018-07-13T17:31:23.528Z,11.33
2018-07-13T17:33:53.830Z,10.17
2018-07-13T17:36:23.864Z,9.90
2018-07-13T17:38:53.981Z,8.70
2018-07-13T17:41:24.049Z,7.43
2018-07-13T17:43:54.206Z,8.47
2018-07-13T17:46:24.285Z,8.27
2018-07-13T17:48:54.440Z,7.27
2018-07-13T17:51:24.524Z,7.00
2018-07-13T17:53:54.574Z,8.50
2018-07-13T17:56:24.704Z,7.80
2018-07-13T17:58:54.842Z,9.90
2018-07-13T18:01:24.853Z,9.60
2018-07-13T18:03:54.941Z,10.87
2018-07-13T18:06:25.236Z,8.97
2018-07-13T18:08:55.452Z,9.60
2018-07-13T18:11:25.408Z,11.67
2018-07-13T18:13:55.822Z,12.47
2018-07-13T18:16:25.841Z,6.80
2018-07-13T18:18:55.968Z,6.27
2018-07-13T18:21:27.057Z,6.13
2018-07-13T18:23:57.163Z,6.20
2018-07-13T18:26:27.287Z,6.27
2018-07-13T18:28:57.687Z,5.90
2018-07-13T18:31:27.701Z,5.73
2018-07-13T18:33:57.957Z,6.30
2018-07-13T18:36:28.119Z,6.30
2018-07-13T18:38:59.227Z,7.20
2018-07-13T18:41:30.180Z,6.30
2018-07-13T18:44:00.205Z,5.87
2018-07-13T18:46:30.322Z,9.47
2018-07-13T18:49:00.872Z,7.03
2018-07-13T18:51:30.695Z,6.97
2018-07-13T18:54:01.605Z,7.33
2018-07-13T18:56:31.960Z,9.60
2018-07-13T18:59:02.282Z,8.97
2018-07-13T19:01:32.350Z,8.40
2018-07-13T19:04:02.453Z,8.83
2018-07-13T19:06:32.555Z,8.97
2018-07-13T19:09:02.852Z,8.13
2018-07-13T19:11:33.720Z,8.30
2018-07-13T19:14:03.857Z,9.30
2018-07-13T19:16:33.926Z,7.70
2018-07-13T19:19:04.483Z,8.30
2018-07-13T19:21:34.420Z,7.10
2018-07-13T19:24:04.436Z,7.07
2018-07-13T19:26:34.548Z,7.17
2018-07-13T19:29:04.631Z,6.87
2018-07-13T19:31:34.730Z,7.30
2018-07-13T19:34:04.982Z,7.53
2018-07-13T19:36:35.044Z,7.87
2018-07-13T19:39:05.851Z,8.37
2018-07-13T19:41:35.796Z,8.70
2018-07-13T19:44:05.835Z,8.30
2018-07-13T19:46:35.867Z,8.50
2018-07-13T19:49:05.800Z,7.83
2018-07-13T19:51:35.689Z,8.50
2018-07-13T19:54:05.805Z,8.70
2018-07-13T19:56:35.811Z,8.47
2018-07-13T19:59:06.042Z,8.47
2018-07-13T20:01:36.158Z,7.97
2018-07-13T20:04:06.340Z,7.77
2018-07-13T20:06:36.268Z,7.27
2018-07-13T20:09:07.359Z,8.40
2018-07-13T20:11:37.443Z,8.50
2018-07-13T20:14:07.545Z,8.27
2018-07-13T20:16:37.469Z,9.67
2018-07-13T20:19:07.451Z,9.30
2018-07-13T20:21:37.486Z,9.17
2018-07-13T20:24:07.459Z,9.80
2018-07-13T20:26:37.423Z,8.60
2018-07-13T20:29:07.610Z,8.17
2018-07-13T20:31:37.544Z,8.30
2018-07-13T20:34:07.581Z,8.77
2018-07-13T20:36:37.452Z,8.27
2018-07-13T20:39:07.823Z,8.40
2018-07-13T20:41:38.008Z,9.00
2018-07-13T20:44:08.109Z,8.90
2018-07-13T20:46:38.229Z,8.70
2018-07-13T20:49:08.203Z,8.80
2018-07-13T20:51:38.263Z,8.80
2018-07-13T20:54:08.342Z,8.60
2018-07-13T20:56:38.470Z,8.70
2018-07-13T20:59:08.490Z,9.60
2018-07-13T21:01:38.377Z,9.90
2018-07-13T21:04:08.471Z,9.70
2018-07-13T21:06:38.617Z,10.50
2018-07-13T21:09:08.763Z,9.40
2018-07-13T21:11:39.033Z,9.73
2018-07-13T21:14:09.124Z,10.20
2018-07-13T21:16:39.198Z,11.00
2018-07-13T21:19:09.249Z,9.87
2018-07-13T21:21:39.204Z,10.37
2018-07-13T21:24:09.215Z,10.37
2018-07-13T21:26:39.218Z,9.67
2018-07-13T21:29:09.535Z,9.23
2018-07-13T21:31:39.665Z,9.43
2018-07-13T21:34:09.775Z,9.87
2018-07-13T21:36:39.878Z,10.13
2018-07-13T21:39:10.195Z,10.23
2018-07-13T21:41:40.117Z,10.80
2018-07-13T21:44:10.150Z,10.63
2018-07-13T21:46:40.114Z,10.30
2018-07-13T21:49:10.121Z,10.50
2018-07-13T21:51:39.982Z,10.53
2018-07-13T21:54:09.905Z,10.50
2018-07-13T21:56:40.028Z,11.13
2018-07-13T21:59:09.924Z,10.43
2018-07-13T22:01:39.742Z,11.30
2018-07-13T22:04:09.606Z,11.63
2018-07-13T22:06:39.458Z,11.00
2018-07-13T22:09:09.513Z,11.10
2018-07-13T22:11:39.647Z,11.67
2018-07-13T22:14:09.755Z,13.10
2018-07-13T22:16:39.724Z,11.97
2018-07-13T22:19:09.878Z,12.83
2018-07-13T22:21:39.819Z,11.83
2018-07-13T22:24:10.206Z,10.43
2018-07-13T22:26:40.100Z,10.50
2018-07-13T22:29:10.148Z,10.47
2018-07-13T22:31:39.985Z,11.60
2018-07-13T22:34:10.070Z,12.17
2018-07-13T22:36:40.033Z,11.40
2018-07-13T22:39:10.096Z,11.73
2018-07-13T22:41:40.016Z,11.83
2018-07-13T22:44:10.359Z,11.50
2018-07-13T22:46:40.358Z,12.23
2018-07-13T22:49:10.397Z,12.60
2018-07-13T22:51:40.461Z,11.93
2018-07-13T22:54:10.349Z,12.73
2018-07-13T22:56:40.405Z,13.13
2018-07-13T22:59:10.377Z,12.57
2018-07-13T23:01:40.495Z,12.40
2018-07-13T23:04:10.437Z,12.10
2018-07-13T23:06:40.695Z,12.40
2018-07-13T23:09:10.659Z,12.30
2018-07-13T23:11:41.049Z,13.20
2018-07-13T23:14:10.933Z,12.30
2018-07-13T23:16:40.961Z,12.43
2018-07-13T23:19:10.945Z,13.50
2018-07-13T23:21:41.050Z,12.20
2018-07-13T23:24:11.267Z,13.20
2018-07-13T23:26:41.343Z,12.30
2018-07-13T23:29:11.391Z,11.70
2018-07-13T23:31:41.424Z,10.93
2018-07-13T23:34:11.533Z,11.20
2018-07-13T23:36:41.688Z,12.17
2018-07-13T23:39:11.613Z,12.00
2018-07-13T23:41:42.153Z,11.93
2018-07-13T23:44:11.996Z,12.20
2018-07-13T23:46:41.888Z,12.00
2018-07-13T23:49:11.955Z,11.63
2018-07-13T23:51:41.806Z,11.87
2018-07-13T23:54:12.072Z,12.03
2018-07-13T23:56:41.944Z,13.00
2018-07-13T23:59:11.903Z,12.17
